Terminal Aerodrome Forecast
Issued by NWS

Home | Current Version | Previous Version | Text Only | Print | Product List | Glossary On
Versions: 1 2 3 4 5 6 7 8 9 10 11 12 13 14 15 16 17 18 19 20 21
265
FTPA31 PHFO 071739
TAFHNY
TAF
PHNY 071739Z 0718/0818 02020G28KT P6SM FEW017 BKN045
     FM072300 02025G35KT P6SM SCT020 BKN045
     FM080600 04020G28KT P6SM SCT020 SCT040
      AMD NOT SKED=

USA.gov is the U.S. government's official web portal to all federal, state and local government web resources and services.